Time;durP1;ratioP1;P1;durP2;ratioP2;P2;SDS_P1;SDS_P2;PMS_P1;PMS_P2;Temp;Humidity;BMP_temperature;BMP_pressure;BME280_temperature;BME280_humidity;BME280_pressure;Samples;Min_cycle;Max_cycle;Signal;HPM_P1;HPM_P2
2021/09/16 00:02:07;;;;;;;73.55;50.50;;;;;;;17.79;100.00;100211.16;2615032;31;20034;-51
2021/09/16 00:04:35;;;;;;;80.70;51.28;;;;;;;17.80;100.00;100210.28;2616150;31;20038;-52
2021/09/16 00:07:03;;;;;;;74.50;47.97;;;;;;;17.81;100.00;100211.13;2614722;36;20038;-52
2021/09/16 00:09:31;;;;;;;79.30;49.08;;;;;;;17.81;100.00;100214.59;2615216;31;20069;-49
2021/09/16 00:11:59;;;;;;;76.72;49.25;;;;;;;17.83;100.00;100209.38;2615133;36;20026;-49
2021/09/16 00:14:26;;;;;;;78.85;49.45;;;;;;;17.85;100.00;100212.81;2617122;31;20035;-53
2021/09/16 00:16:53;;;;;;;78.55;49.70;;;;;;;17.86;100.00;100213.69;2618025;36;20034;-50
2021/09/16 00:19:20;;;;;;;73.00;48.63;;;;;;;17.85;100.00;100209.38;2615677;36;20061;-51
2021/09/16 00:21:47;;;;;;;81.88;49.80;;;;;;;17.85;100.00;100210.22;2615643;31;21016;-54
2021/09/16 00:24:14;;;;;;;79.95;49.47;;;;;;;17.85;100.00;100211.97;2614947;36;20034;-50
2021/09/16 00:26:41;;;;;;;82.32;50.10;;;;;;;17.87;100.00;100216.25;2615377;31;20446;-53
2021/09/16 00:29:10;;;;;;;83.03;50.22;;;;;;;17.88;100.00;100220.53;2614843;31;20870;-51
2021/09/16 00:31:37;;;;;;;79.70;50.72;;;;;;;17.88;100.00;100222.28;2614814;36;20030;-51
2021/09/16 00:34:04;;;;;;;89.40;51.60;;;;;;;17.88;100.00;100225.72;2614794;36;20038;-49
2021/09/16 00:36:31;;;;;;;80.55;49.20;;;;;;;17.89;100.00;100222.28;2614808;31;20053;-51
2021/09/16 00:38:59;;;;;;;85.00;51.72;;;;;;;17.89;100.00;100224.88;2614761;36;20031;-49
2021/09/16 00:41:28;;;;;;;85.75;50.03;;;;;;;17.90;100.00;100223.13;2614740;31;20042;-49
2021/09/16 00:43:56;;;;;;;86.57;49.95;;;;;;;17.91;100.00;100220.50;2614274;36;20030;-52
2021/09/16 00:46:24;;;;;;;93.90;51.20;;;;;;;17.92;100.00;100223.97;2614728;31;20034;-48
2021/09/16 00:48:51;;;;;;;84.00;49.70;;;;;;;17.93;100.00;100225.66;2614487;36;20057;-49
2021/09/16 00:51:19;;;;;;;82.05;50.85;;;;;;;17.94;100.00;100223.06;2614690;31;20065;-52
2021/09/16 00:53:46;;;;;;;87.72;49.67;;;;;;;17.95;100.00;100229.97;2614452;36;20042;-52
2021/09/16 00:56:15;;;;;;;83.25;50.10;;;;;;;17.94;100.00;100230.00;2615119;31;20030;-53
2021/09/16 00:58:46;;;;;;;85.97;47.97;;;;;;;17.94;100.00;100236.03;2614852;36;20061;-53
2021/09/16 01:01:15;;;;;;;88.13;50.13;;;;;;;17.94;100.00;100236.03;2614976;36;20034;-52
2021/09/16 01:03:53;;;;;;;80.10;46.35;;;;;;;17.95;100.00;100232.56;2615463;36;20074;-52
2021/09/16 01:06:27;;;;;;;83.50;48.60;;;;;;;17.97;100.00;100237.72;2614916;36;20031;-50
2021/09/16 01:09:03;;;;;;;86.10;47.60;;;;;;;17.94;100.00;100238.63;2615285;36;20034;-51
2021/09/16 01:11:32;;;;;;;86.05;48.75;;;;;;;17.92;100.00;100240.34;2615198;36;20042;-49
2021/09/16 01:13:59;;;;;;;88.57;47.55;;;;;;;17.92;100.00;100239.50;2615342;36;20034;-49
2021/09/16 01:16:26;;;;;;;82.97;47.88;;;;;;;17.95;100.00;100240.31;2614880;36;20037;-52
2021/09/16 01:18:53;;;;;;;85.43;48.42;;;;;;;17.93;100.00;100236.03;2615390;36;20069;-50
2021/09/16 01:21:21;;;;;;;84.13;47.42;;;;;;;17.94;100.00;100248.97;2617420;31;20037;-54
2021/09/16 01:23:49;;;;;;;78.47;45.83;;;;;;;17.95;100.00;100247.25;2615618;31;20065;-55
2021/09/16 01:26:16;;;;;;;82.57;45.72;;;;;;;17.96;100.00;100248.97;2615618;31;20042;-55
2021/09/16 01:28:43;;;;;;;81.28;46.47;;;;;;;17.95;100.00;100250.69;2615867;31;20034;-50
2021/09/16 01:31:11;;;;;;;75.72;45.63;;;;;;;17.92;100.00;100261.06;2615612;36;20638;-54
2021/09/16 01:33:38;;;;;;;74.20;43.00;;;;;;;17.90;100.00;100260.25;2615160;36;20038;-50
2021/09/16 01:36:10;;;;;;;71.13;43.53;;;;;;;17.90;100.00;100260.25;2616108;31;20030;-55
2021/09/16 01:38:37;;;;;;;69.93;41.83;;;;;;;17.89;100.00;100261.13;2616075;31;20031;-49
2021/09/16 01:41:04;;;;;;;74.70;43.53;;;;;;;17.88;100.00;100258.53;2615556;36;20069;-50
2021/09/16 01:43:31;;;;;;;74.47;43.45;;;;;;;17.86;100.00;100261.16;2615796;36;20459;-52
2021/09/16 01:45:58;;;;;;;72.47;43.00;;;;;;;17.86;100.00;100257.72;2615633;31;20058;-50
2021/09/16 01:48:25;;;;;;;68.60;42.67;;;;;;;17.86;100.00;100255.97;2614804;36;20038;-51
2021/09/16 01:50:53;;;;;;;72.35;41.50;;;;;;;17.83;100.00;100260.31;2615645;31;20038;-56
2021/09/16 01:53:20;;;;;;;79.93;43.13;;;;;;;17.77;100.00;100256.94;2615894;31;20724;-49
2021/09/16 01:55:47;;;;;;;71.65;42.72;;;;;;;17.79;100.00;100265.56;2615521;36;20038;-54
2021/09/16 01:58:14;;;;;;;78.65;43.47;;;;;;;17.81;100.00;100271.56;2614918;36;20038;-51
2021/09/16 02:00:41;;;;;;;69.28;40.17;;;;;;;17.83;100.00;100268.94;2614972;36;20061;-51
2021/09/16 02:03:08;;;;;;;68.40;40.67;;;;;;;17.83;100.00;100278.47;2615272;31;20035;-53
2021/09/16 02:05:35;;;;;;;70.07;42.42;;;;;;;17.82;100.00;100275.00;2614942;31;20037;-55
2021/09/16 02:08:03;;;;;;;68.38;41.20;;;;;;;17.82;100.00;100277.59;2615165;36;20038;-52
2021/09/16 02:10:30;;;;;;;75.03;41.45;;;;;;;17.82;100.00;100269.84;2615549;36;20035;-54
2021/09/16 02:12:57;;;;;;;69.05;41.65;;;;;;;17.81;100.00;100270.72;2615659;31;20034;-51
2021/09/16 02:15:24;;;;;;;67.90;40.95;;;;;;;17.81;100.00;100270.72;2615300;31;20034;-51
2021/09/16 02:17:51;;;;;;;62.35;38.63;;;;;;;17.78;100.00;100276.78;2615179;36;20050;-51
2021/09/16 02:20:18;;;;;;;61.95;37.95;;;;;;;17.78;100.00;100271.59;2615786;36;20047;-56
2021/09/16 02:22:45;;;;;;;57.65;36.45;;;;;;;17.74;100.00;100276.81;2615785;36;20580;-54
2021/09/16 02:25:13;;;;;;;50.53;33.05;;;;;;;17.72;100.00;100276.81;2615212;36;20034;-50
2021/09/16 02:27:40;;;;;;;49.05;31.77;;;;;;;17.70;100.00;100282.88;2615430;36;20601;-49
2021/09/16 02:30:07;;;;;;;44.75;30.92;;;;;;;17.68;100.00;100284.63;2616255;31;20057;-52
2021/09/16 02:32:35;;;;;;;40.38;30.15;;;;;;;17.65;100.00;100279.47;2615858;31;20038;-52
2021/09/16 02:35:02;;;;;;;39.75;29.52;;;;;;;17.65;100.00;100279.47;2615825;31;20061;-52
2021/09/16 02:37:29;;;;;;;45.58;30.42;;;;;;;17.63;100.00;100273.47;2614894;36;20058;-51
2021/09/16 02:39:57;;;;;;;38.40;27.85;;;;;;;17.62;100.00;100280.38;2616470;31;20900;-50
2021/09/16 02:42:24;;;;;;;37.33;26.73;;;;;;;17.60;100.00;100281.25;2615480;31;20035;-50
2021/09/16 02:44:51;;;;;;;33.60;26.15;;;;;;;17.56;100.00;100291.66;2615075;36;20042;-54
2021/09/16 02:47:18;;;;;;;36.15;26.38;;;;;;;17.54;100.00;100283.03;2614998;36;20069;-52
2021/09/16 02:49:45;;;;;;;33.50;24.83;;;;;;;17.53;100.00;100288.22;2616118;31;20069;-50
2021/09/16 02:52:13;;;;;;;32.50;25.45;;;;;;;17.53;100.00;100298.59;2615645;36;20038;-51
2021/09/16 02:54:40;;;;;;;38.75;26.63;;;;;;;17.50;100.00;100296.00;2615573;36;20038;-50
2021/09/16 02:57:07;;;;;;;32.30;26.15;;;;;;;17.48;100.00;100298.63;2615783;31;20038;-48
2021/09/16 02:59:34;;;;;;;38.45;27.90;;;;;;;17.49;100.00;100297.75;2615677;31;20030;-50
2021/09/16 03:02:01;;;;;;;35.55;26.02;;;;;;;17.49;100.00;100304.66;2615799;31;20034;-48
2021/09/16 03:04:28;;;;;;;39.30;27.45;;;;;;;17.47;100.00;100308.97;2617101;31;20864;-47
2021/09/16 03:06:55;;;;;;;36.03;26.30;;;;;;;17.47;100.00;100303.78;2615127;36;20034;-49
2021/09/16 03:09:23;;;;;;;38.80;26.50;;;;;;;17.44;100.00;100309.03;2615844;36;20060;-50
2021/09/16 03:11:50;;;;;;;36.83;27.67;;;;;;;17.44;100.00;100307.28;2615238;31;20030;-51
2021/09/16 03:14:18;;;;;;;37.58;28.42;;;;;;;17.45;100.00;100308.13;2614877;31;20075;-52
2021/09/16 03:16:45;;;;;;;39.65;27.98;;;;;;;17.43;100.00;100305.56;2615318;31;20042;-51
2021/09/16 03:19:12;;;;;;;36.63;27.92;;;;;;;17.41;100.00;100307.28;2615326;31;20597;-51
2021/09/16 03:21:39;;;;;;;39.25;28.35;;;;;;;17.42;100.00;100308.16;2615686;31;20029;-51
2021/09/16 03:24:06;;;;;;;40.08;29.50;;;;;;;17.39;100.00;100309.06;2614841;36;20038;-48
2021/09/16 03:26:33;;;;;;;38.83;28.90;;;;;;;17.39;100.00;100305.63;2616841;31;20038;-52
2021/09/16 03:29:00;;;;;;;44.72;29.63;;;;;;;17.38;100.00;100304.75;2619687;31;20030;-53
2021/09/16 03:31:27;;;;;;;43.38;29.00;;;;;;;17.36;100.00;100305.63;2618424;31;20034;-54
2021/09/16 03:33:54;;;;;;;46.25;31.33;;;;;;;17.35;100.00;100306.50;2615860;31;20045;-49
2021/09/16 03:36:21;;;;;;;42.15;28.95;;;;;;;17.34;100.00;100309.97;2615178;31;20046;-49
2021/09/16 03:38:49;;;;;;;45.13;30.10;;;;;;;17.33;100.00;100303.91;2614924;36;20061;-50
2021/09/16 03:41:16;;;;;;;41.60;29.52;;;;;;;17.31;100.00;100310.84;2615048;36;20034;-52
2021/09/16 03:43:43;;;;;;;48.25;31.27;;;;;;;17.30;100.00;100307.41;2615588;31;20034;-51
2021/09/16 03:46:10;;;;;;;46.50;30.90;;;;;;;17.29;100.00;100307.41;2615412;31;20034;-49
2021/09/16 03:48:37;;;;;;;46.28;31.15;;;;;;;17.28;100.00;100303.94;2614983;31;20587;-52
2021/09/16 03:51:04;;;;;;;48.30;31.10;;;;;;;17.28;100.00;100311.72;2615472;31;20054;-49
2021/09/16 03:53:31;;;;;;;47.67;30.73;;;;;;;17.28;100.00;100311.72;2615173;31;20065;-52
2021/09/16 03:55:59;;;;;;;46.95;31.90;;;;;;;17.28;100.00;100316.88;2615641;36;20034;-51
2021/09/16 03:58:26;;;;;;;47.03;31.60;;;;;;;17.27;100.00;100319.50;2615723;31;20062;-50
2021/09/16 04:01:01;;;;;;;48.75;32.63;;;;;;;17.28;100.00;100319.47;2614011;36;20034;-51
2021/09/16 04:03:35;;;;;;;53.55;33.88;;;;;;;17.26;100.00;100313.47;2613894;31;20121;-52
2021/09/16 04:06:07;;;;;;;;;;;;;;;17.26;100.00;100310.03;2578654;36;2004612;-54
2021/09/16 04:08:35;;;;;;;56.63;35.08;;;;;;;17.26;100.00;100312.63;2614520;31;20470;-55
2021/09/16 04:11:04;;;;;;;58.13;35.40;;;;;;;17.26;100.00;100316.06;2615603;31;20521;-52
2021/09/16 04:13:31;;;;;;;54.67;34.25;;;;;;;17.27;100.00;100322.09;2614672;36;20041;-55
2021/09/16 04:15:58;;;;;;;57.58;35.13;;;;;;;17.26;100.00;100323.81;2614900;36;20034;-50
2021/09/16 04:18:25;;;;;;;58.13;36.50;;;;;;;17.25;100.00;100324.69;2614598;36;20832;-56
2021/09/16 04:20:53;;;;;;;52.05;34.92;;;;;;;17.22;100.00;100313.50;2613739;36;20042;-51
2021/09/16 04:23:20;;;;;;;53.90;35.55;;;;;;;17.23;100.00;100325.56;2614101;31;20030;-49
2021/09/16 04:25:47;;;;;;;62.25;37.88;;;;;;;17.18;100.00;100323.00;2615454;31;20065;-47
2021/09/16 04:28:14;;;;;;;64.93;37.70;;;;;;;17.19;100.00;100326.44;2614554;31;20058;-45
2021/09/16 04:30:41;;;;;;;64.78;38.72;;;;;;;17.20;100.00;100335.97;2615742;31;20077;-49
2021/09/16 04:33:09;;;;;;;66.50;39.08;;;;;;;17.15;100.00;100330.81;2614906;36;20057;-47
2021/09/16 04:35:39;;;;;;;69.93;41.40;;;;;;;17.17;100.00;100328.22;2615068;31;20970;-50
2021/09/16 04:38:06;;;;;;;74.75;42.30;;;;;;;17.15;100.00;100336.00;2615544;31;20035;-51
2021/09/16 04:40:33;;;;;;;72.93;41.47;;;;;;;17.14;100.00;100331.66;2615631;36;20065;-49
2021/09/16 04:43:00;;;;;;;78.88;43.15;;;;;;;17.13;100.00;100332.53;2615493;36;20053;-50
2021/09/16 04:45:27;;;;;;;85.50;45.05;;;;;;;17.12;100.00;100337.72;2617034;31;20022;-51
2021/09/16 04:47:54;;;;;;;81.03;44.40;;;;;;;17.13;100.00;100336.84;2615602;36;20120;-50
2021/09/16 04:50:21;;;;;;;80.43;44.10;;;;;;;17.13;100.00;100337.72;2616229;31;20061;-55
2021/09/16 04:52:49;;;;;;;76.68;44.10;;;;;;;17.14;100.00;100343.75;2616650;31;20467;-53
2021/09/16 04:55:16;;;;;;;82.50;44.00;;;;;;;17.14;100.00;100341.16;2615975;36;20474;-56
2021/09/16 04:57:43;;;;;;;81.97;45.00;;;;;;;17.14;100.00;100343.75;2615654;36;20464;-52
2021/09/16 05:00:10;;;;;;;79.40;43.88;;;;;;;17.13;100.00;100348.06;2615038;36;20065;-55
2021/09/16 05:02:38;;;;;;;80.50;45.17;;;;;;;17.11;100.00;100356.72;2615112;36;20030;-56
2021/09/16 05:05:06;;;;;;;76.53;44.55;;;;;;;17.11;100.00;100360.16;2614001;36;20042;-55
2021/09/16 05:07:33;;;;;;;94.20;48.47;;;;;;;17.11;100.00;100364.47;2614185;36;20042;-56
2021/09/16 05:10:01;;;;;;;79.70;45.40;;;;;;;17.12;100.00;100361.88;2615477;36;20037;-50
2021/09/16 05:12:29;;;;;;;84.93;46.25;;;;;;;17.12;100.00;100379.13;2615373;36;20042;-52
2021/09/16 05:14:57;;;;;;;82.20;45.20;;;;;;;17.10;100.00;100380.84;2616208;31;20034;-54
2021/09/16 05:17:25;;;;;;;61.63;37.53;;;;;;;16.93;100.00;100371.47;2615497;36;20031;-55
2021/09/16 05:19:52;;;;;;;49.13;32.55;;;;;;;16.89;100.00;100380.09;2616737;31;20041;-51
2021/09/16 05:22:22;;;;;;;44.50;31.08;;;;;;;16.87;100.00;100379.28;2616865;31;20124;-50
2021/09/16 05:24:49;;;;;;;45.33;28.58;;;;;;;16.85;100.00;100372.38;2615605;31;20034;-52
2021/09/16 05:27:19;;;;;;;39.67;28.15;;;;;;;16.86;100.00;100381.84;2615954;36;20594;-51
2021/09/16 05:29:46;;;;;;;40.70;28.02;;;;;;;16.83;100.00;100374.97;2615843;36;20150;-56
2021/09/16 05:32:13;;;;;;;40.50;26.67;;;;;;;16.83;100.00;100387.06;2615728;36;20034;-52
2021/09/16 05:34:43;;;;;;;35.70;26.05;;;;;;;16.83;100.00;100387.06;2616257;31;20030;-47
2021/09/16 05:37:11;;;;;;;32.40;25.15;;;;;;;16.87;100.00;100384.44;2616310;36;20438;-46
2021/09/16 05:39:38;;;;;;;33.67;23.63;;;;;;;16.92;100.00;100393.03;2615779;31;20069;-51
2021/09/16 05:42:05;;;;;;;31.85;24.38;;;;;;;16.96;100.00;100389.56;2616209;31;20037;-46
2021/09/16 05:44:32;;;;;;;37.92;25.05;;;;;;;16.99;100.00;100396.44;2616220;36;20041;-50
2021/09/16 05:46:59;;;;;;;33.55;24.30;;;;;;;16.97;100.00;100404.22;2615775;31;20027;-46
2021/09/16 05:49:27;;;;;;;33.28;23.90;;;;;;;17.01;100.00;100397.31;2616321;31;20042;-53
2021/09/16 05:51:54;;;;;;;36.92;25.30;;;;;;;17.05;100.00;100407.63;2616558;31;20034;-47
2021/09/16 05:54:27;;;;;;;35.88;25.55;;;;;;;17.01;100.00;100408.50;2615335;31;20035;-48
2021/09/16 05:56:54;;;;;;;30.63;23.38;;;;;;;17.00;100.00;100408.50;2616332;31;20026;-46
2021/09/16 05:59:24;;;;;;;32.67;22.85;;;;;;;17.10;100.00;100410.19;2616828;31;20027;-46
2021/09/16 06:01:54;;;;;;;30.92;22.30;;;;;;;17.10;100.00;100415.38;2616099;31;20037;-46
2021/09/16 06:04:21;;;;;;;27.15;20.83;;;;;;;17.11;100.00;100417.09;2616084;31;20036;-47
2021/09/16 06:06:48;;;;;;;24.17;19.42;;;;;;;17.05;100.00;100411.91;2615305;36;20037;-53
2021/09/16 06:09:18;;;;;;;25.00;18.33;;;;;;;17.03;100.00;100419.69;2615947;31;20030;-48
2021/09/16 06:11:45;;;;;;;22.77;16.45;;;;;;;16.94;100.00;100414.56;2615460;36;20062;-52
2021/09/16 06:14:12;;;;;;;20.08;14.95;;;;;;;16.87;100.00;100422.34;2616033;31;20023;-51
2021/09/16 06:16:42;;;;;;;20.90;15.50;;;;;;;16.85;100.00;100424.97;2614674;36;20038;-52
2021/09/16 06:19:10;;;;;;;19.58;15.68;;;;;;;16.86;100.00;100431.00;2615403;36;20037;-51
2021/09/16 06:21:39;;;;;;;17.75;14.20;;;;;;;16.84;100.00;100431.00;2615597;36;20046;-46
2021/09/16 06:24:06;;;;;;;17.30;13.93;;;;;;;16.86;100.00;100421.50;2615706;31;20034;-45
2021/09/16 06:26:33;;;;;;;18.30;13.15;;;;;;;16.85;100.00;100424.97;2615301;31;20069;-52
2021/09/16 06:29:04;;;;;;;13.25;11.52;;;;;;;16.93;100.00;100428.38;2614648;36;20860;-52
2021/09/16 06:31:31;;;;;;;18.15;12.18;;;;;;;16.94;100.00;100429.22;2615239;31;20042;-48
2021/09/16 06:33:58;;;;;;;32.88;21.63;;;;;;;16.86;100.00;100428.41;2614630;36;20046;-47
2021/09/16 06:36:26;;;;;;;17.70;12.68;;;;;;;16.89;100.00;100437.00;2614894;36;20046;-47
2021/09/16 06:38:53;;;;;;;17.60;14.13;;;;;;;16.99;100.00;100437.81;2615461;36;20046;-47
2021/09/16 06:41:20;;;;;;;13.90;10.52;;;;;;;17.14;100.00;100442.06;2614727;36;20289;-47
2021/09/16 06:43:47;;;;;;;13.27;10.40;;;;;;;17.21;100.00;100444.63;2614796;31;20038;-51
2021/09/16 06:46:14;;;;;;;9.77;8.25;;;;;;;17.27;100.00;100454.06;2615400;31;20061;-47
2021/09/16 06:48:41;;;;;;;12.90;9.18;;;;;;;17.37;100.00;100457.47;2615791;36;20527;-46
2021/09/16 06:51:08;;;;;;;13.68;8.27;;;;;;;17.27;100.00;100457.50;2615488;31;20038;-49
2021/09/16 06:53:56;;;;;;;8.95;7.93;;;;;;;17.31;100.00;100458.38;2614368;31;20074;-43
2021/09/16 06:56:29;;;;;;;12.82;8.05;;;;;;;17.31;100.00;100461.81;2612648;31;20030;-50
2021/09/16 06:58:56;;;;;;;12.07;7.93;;;;;;;17.22;100.00;100461.84;2614556;31;20097;-57
2021/09/16 07:01:24;;;;;;;10.07;8.02;;;;;;;17.41;100.00;100464.34;2614677;36;20026;-55
2021/09/16 07:03:54;;;;;;;11.15;7.85;;;;;;;17.46;100.00;100465.19;2615628;31;20082;-53
2021/09/16 07:06:37;;;;;;;13.55;8.25;;;;;;;17.49;100.00;100471.19;2579306;31;2004388;-48
2021/09/16 07:09:04;;;;;;;12.32;7.47;;;;;;;17.42;100.00;100477.28;2615169;31;20034;-48
2021/09/16 07:11:32;;;;;;;8.75;7.65;;;;;;;17.38;100.00;100478.19;2613492;31;20042;-47
2021/09/16 07:14:06;;;;;;;8.15;7.18;;;;;;;17.39;100.00;100477.31;2613633;31;20030;-47
2021/09/16 07:16:34;;;;;;;9.85;7.10;;;;;;;17.42;100.00;100474.69;2613337;31;20030;-48
2021/09/16 07:19:28;;;;;;;10.90;7.35;;;;;;;17.40;100.00;100475.56;2614721;36;20129;-47
2021/09/16 07:21:55;;;;;;;9.52;7.18;;;;;;;17.51;100.00;100478.94;2616586;31;20038;-48
2021/09/16 07:24:23;;;;;;;10.40;7.38;;;;;;;17.60;100.00;100475.44;2615277;36;20042;-44
2021/09/16 07:26:51;;;;;;;8.48;6.70;;;;;;;17.62;100.00;100479.75;2614588;36;20139;-45
2021/09/16 07:29:20;;;;;;;7.85;6.60;;;;;;;17.47;100.00;100472.06;2615384;31;20487;-46
2021/09/16 07:31:54;;;;;;;10.02;6.95;;;;;;;17.41;100.00;100483.31;2615111;36;20562;-49
2021/09/16 07:34:22;;;;;;;9.23;7.35;;;;;;;17.40;100.00;100489.38;2615256;36;20026;-44
2021/09/16 07:36:50;;;;;;;8.77;6.93;;;;;;;17.38;100.00;100485.94;2615251;36;20068;-47
2021/09/16 07:39:21;;;;;;;8.90;6.97;;;;;;;17.46;100.00;100491.91;2615328;31;20030;-48
2021/09/16 07:41:49;;;;;;;8.35;7.07;;;;;;;17.51;100.00;100497.94;2615397;31;20038;-47
2021/09/16 07:44:17;;;;;;;10.65;7.60;;;;;;;17.52;100.00;100497.09;2614977;36;20035;-45
2021/09/16 07:46:45;;;;;;;10.07;7.10;;;;;;;17.70;100.00;100501.28;2615863;31;20030;-46
2021/09/16 07:49:13;;;;;;;9.35;7.35;;;;;;;17.80;100.00;100497.78;2615602;31;20172;-46
2021/09/16 07:51:40;;;;;;;8.93;7.00;;;;;;;17.87;100.00;100496.00;2614935;36;20030;-47
2021/09/16 07:54:11;;;;;;;8.30;5.78;;;;;;;18.08;100.00;100499.31;2615124;36;20411;-46
2021/09/16 07:56:40;;;;;;;7.03;6.40;;;;;;;18.45;100.00;100502.44;2615743;31;20038;-45
2021/09/16 07:59:08;;;;;;;11.43;6.30;;;;;;;18.57;100.00;100504.91;2615418;31;20026;-44
2021/09/16 08:01:38;;;;;;;6.72;5.50;;;;;;;18.70;100.00;100506.53;2615345;36;20128;-46
2021/09/16 08:04:08;;;;;;;8.38;5.70;;;;;;;18.92;100.00;100499.38;2579595;31;2004572;-44
2021/09/16 08:06:35;;;;;;;11.57;5.80;;;;;;;19.10;100.00;100503.47;2615010;31;20037;-45
2021/09/16 08:09:03;;;;;;;10.90;5.95;;;;;;;19.12;100.00;100503.44;2615767;31;20458;-46
2021/09/16 08:11:30;;;;;;;5.75;5.20;;;;;;;19.30;100.00;100506.66;2612683;31;20039;-45
2021/09/16 08:13:57;;;;;;;6.68;4.53;;;;;;;19.40;100.00;100502.22;2614918;36;20142;-44
2021/09/16 08:16:25;;;;;;;7.05;4.18;;;;;;;19.78;100.00;100508.63;2614187;31;20042;-47
2021/09/16 08:18:52;;;;;;;4.72;3.42;;;;;;;19.73;100.00;100513.03;2612956;31;20057;-45
2021/09/16 08:21:20;;;;;;;5.70;3.20;;;;;;;19.01;100.00;100519.16;2615136;36;20455;-45
2021/09/16 08:23:47;;;;;;;3.72;2.75;;;;;;;19.11;100.00;100514.72;2615132;36;20030;-44
2021/09/16 08:26:14;;;;;;;6.43;3.53;;;;;;;19.18;100.00;100517.22;2614774;36;20034;-47
2021/09/16 08:28:41;;;;;;;3.85;2.58;;;;;;;19.36;100.00;100518.72;2614782;36;20042;-47
2021/09/16 08:31:09;;;;;;;4.15;2.92;;;;;;;19.33;100.00;100521.38;2615422;31;20035;-44
2021/09/16 08:33:36;;;;;;;6.25;2.70;;;;;;;19.00;100.00;100517.47;2615594;36;20147;-44
2021/09/16 08:36:04;;;;;;;4.90;2.90;;;;;;;19.34;100.00;100523.94;2615008;31;20054;-45
2021/09/16 08:38:32;;;;;;;3.20;2.30;;;;;;;19.02;100.00;100516.53;2616045;31;20034;-45
2021/09/16 08:40:59;;;;;;;2.60;2.38;;;;;;;19.11;100.00;100522.50;2615401;31;20034;-45
2021/09/16 08:43:33;;;;;;;3.97;2.58;;;;;;;19.08;100.00;100523.38;2615690;31;20038;-47
2021/09/16 08:46:03;;;;;;;3.85;2.10;;;;;;;19.18;100.00;100519.84;2615698;31;20026;-45
2021/09/16 08:48:31;;;;;;;3.83;1.85;;;;;;;19.24;100.00;100522.34;2616040;31;20449;-47
2021/09/16 08:51:02;;;;;;;3.00;1.88;;;;;;;19.46;100.00;100524.63;2614940;36;20031;-47
2021/09/16 08:53:33;;;;;;;2.22;1.80;;;;;;;19.55;99.72;100529.69;2615197;31;20026;-48
2021/09/16 08:56:03;;;;;;;2.10;1.50;;;;;;;19.63;97.04;100529.66;2615081;36;20535;-46
2021/09/16 08:58:31;;;;;;;4.35;1.48;;;;;;;19.84;96.11;100522.41;2614845;36;20030;-46
2021/09/16 09:00:58;;;;;;;2.72;1.52;;;;;;;20.11;96.35;100527.22;2615489;31;20031;-43
2021/09/16 09:03:27;;;;;;;3.85;1.60;;;;;;;20.22;93.01;100527.88;2615174;31;20030;-48
2021/09/16 09:05:54;;;;;;;2.00;1.80;;;;;;;20.41;89.44;100526.66;2614926;36;20023;-43
2021/09/16 09:08:25;;;;;;;3.22;1.70;;;;;;;20.84;88.75;100531.13;2615628;31;20023;-43
2021/09/16 09:11:01;;;;;;;2.53;1.58;;;;;;;20.91;90.67;100522.31;2615260;36;20580;-44
2021/09/16 09:13:29;;;;;;;2.63;1.80;;;;;;;20.92;88.63;100523.16;2614895;36;20147;-46
2021/09/16 09:16:06;;;;;;;3.28;1.55;;;;;;;20.63;88.74;100523.72;2615789;36;20431;-43
2021/09/16 09:18:43;;;;;;;2.00;1.10;;;;;;;19.87;85.44;100516.28;2614400;36;20083;-47
2021/09/16 09:21:13;;;;;;;1.40;0.80;;;;;;;19.50;87.42;100529.78;2579950;31;2004456;-43
2021/09/16 09:23:54;;;;;;;2.65;1.45;;;;;;;19.18;89.56;100522.44;2615703;31;20163;-43
2021/09/16 09:26:25;;;;;;;0.80;0.77;;;;;;;19.17;93.07;100520.69;2615740;36;20150;-48
2021/09/16 09:28:56;;;;;;;1.45;0.95;;;;;;;19.26;91.19;100528.34;2615643;36;20437;-48
2021/09/16 09:31:28;;;;;;;2.85;1.15;;;;;;;19.30;94.70;100530.03;2617034;31;20458;-46
2021/09/16 09:34:29;;;;;;;2.05;1.30;;;;;;;19.75;94.09;100530.34;2616544;36;20543;-44
2021/09/16 09:37:25;;;;;;;1.92;1.30;;;;;;;19.59;94.32;100523.59;2579415;36;2004420;-44
2021/09/16 09:39:59;;;;;;;3.47;1.63;;;;;;;19.27;95.98;100530.09;2579856;31;2004679;-43
2021/09/16 09:42:28;;;;;;;2.35;1.58;;;;;;;19.21;98.08;100535.34;2616267;36;20442;-45
2021/09/16 09:45:05;;;;;;;1.83;1.60;;;;;;;19.24;100.00;100534.47;2615675;36;20031;-43
2021/09/16 09:47:40;;;;;;;2.92;1.98;;;;;;;19.60;98.08;100546.16;2617547;31;20038;-45
2021/09/16 09:50:24;;;;;;;2.83;1.48;;;;;;;19.78;95.01;100538.09;2622319;36;20057;-44
2021/09/16 09:52:52;;;;;;;4.82;1.95;;;;;;;19.89;94.25;100545.72;2584350;36;2004564;-43
2021/09/16 09:55:24;;;;;;;1.67;1.30;;;;;;;19.87;91.91;100542.28;2616687;31;20554;-45
2021/09/16 09:58:03;;;;;;;3.03;1.30;;;;;;;20.30;85.32;100544.22;2615731;31;20037;-45
2021/09/16 10:00:30;;;;;;;1.85;1.10;;;;;;;20.86;83.82;100537.16;2615669;31;20027;-43
2021/09/16 10:03:02;;;;;;;3.33;1.02;;;;;;;21.02;81.48;100545.53;2616222;31;20157;-48
2021/09/16 10:05:32;;;;;;;3.65;1.20;;;;;;;20.81;81.70;100534.66;2615491;31;20049;-45
2021/09/16 10:08:08;;;;;;;2.40;1.13;;;;;;;20.84;82.42;100538.94;2615134;36;20046;-43
2021/09/16 10:11:03;;;;;;;1.50;1.13;;;;;;;21.18;76.71;100549.56;2616227;31;20119;-43
2021/09/16 10:13:33;;;;;;;4.82;1.10;;;;;;;20.99;80.44;100545.59;2579288;36;2004552;-48
2021/09/16 10:16:04;;;;;;;2.67;1.00;;;;;;;21.65;77.48;100542.50;2615651;36;20030;-43
2021/09/16 10:18:32;;;;;;;4.70;1.25;;;;;;;21.81;82.31;100550.81;2615996;31;20501;-48
2021/09/16 10:21:00;;;;;;;1.58;0.90;;;;;;;21.47;79.85;100546.38;2614855;36;20126;-48
2021/09/16 10:23:29;;;;;;;1.80;1.05;;;;;;;21.06;79.52;100553.25;2615866;31;20053;-45
2021/09/16 10:25:57;;;;;;;1.95;1.10;;;;;;;20.42;84.40;100544.00;2613415;36;20570;-49
2021/09/16 10:28:36;;;;;;;2.80;0.90;;;;;;;20.33;82.59;100551.94;2614641;36;20030;-44
2021/09/16 10:31:20;;;;;;;2.92;1.15;;;;;;;20.69;83.72;100547.88;2614376;36;20562;-46
2021/09/16 10:33:47;;;;;;;1.85;1.20;;;;;;;20.94;81.08;100548.28;2579840;31;2004544;-43
2021/09/16 10:36:14;;;;;;;2.78;1.30;;;;;;;21.24;77.58;100543.34;2615431;36;20033;-52
2021/09/16 10:38:55;;;;;;;2.90;0.90;;;;;;;21.52;76.25;100552.31;2615326;36;20070;-48
2021/09/16 10:41:27;;;;;;;3.45;1.13;;;;;;;21.27;79.30;100551.13;2616028;36;20023;-45
2021/09/16 10:43:58;;;;;;;1.67;1.17;;;;;;;21.01;76.09;100557.69;2616202;31;20034;-42
2021/09/16 10:46:37;;;;;;;2.05;1.00;;;;;;;21.09;75.38;100552.34;2615690;36;20068;-47
2021/09/16 10:49:22;;;;;;;6.32;1.20;;;;;;;20.57;80.79;100548.13;2615807;36;20035;-48
2021/09/16 10:51:54;;;;;;;3.33;0.90;;;;;;;20.42;82.09;100548.34;2579662;36;2004353;-43
2021/09/16 10:54:27;;;;;;;3.13;0.95;;;;;;;21.70;75.54;100545.84;2616267;31;20584;-43
2021/09/16 10:57:00;;;;;;;2.05;0.75;;;;;;;22.20;73.88;100551.69;2614834;36;20045;-42
2021/09/16 10:59:52;;;;;;;5.38;0.80;;;;;;;23.06;73.45;100550.31;2616709;31;20522;-44
2021/09/16 11:02:39;;;;;;;1.20;0.60;;;;;;;22.31;69.73;100548.78;2579418;36;2004546;-48
2021/09/16 11:05:17;;;;;;;3.13;1.00;;;;;;;22.38;73.36;100545.16;2615497;36;20034;-46
2021/09/16 11:07:53;;;;;;;1.70;0.90;;;;;;;22.19;73.55;100546.50;2579929;31;2004371;-47
2021/09/16 11:10:20;;;;;;;1.20;0.65;;;;;;;21.18;77.92;100546.09;2616027;36;20446;-46
2021/09/16 11:12:51;;;;;;;1.15;0.68;;;;;;;21.05;79.61;100551.53;2615559;36;20550;-47
2021/09/16 11:15:27;;;;;;;2.55;0.88;;;;;;;21.63;78.27;100556.44;2616158;36;20445;-45
2021/09/16 11:18:09;;;;;;;3.47;0.85;;;;;;;23.36;68.27;100558.16;2616126;36;20450;-45
2021/09/16 11:20:39;;;;;;;3.10;1.10;;;;;;;22.76;70.86;100558.94;2615660;36;20058;-52